Terminal Aerodrome Forecast
Issued by NWS Sterling, VA

Home | Current Version | Previous Version | Text Only | Print | Product List | Glossary On
Versions: 1 2 3 4 5 6 7 8 9 10 11 12 13 14 15 16 17 18 19 20 21 22
000
FTUS41 KLWX 231500 AAA
TAFBWI
TAF AMD
KBWI 231500Z 2315/2418 06009KT P6SM FEW023 BKN100
     FM231800 08007KT P6SM OVC023
     FM232000 07007KT P6SM -RA OVC015
     FM240500 04004KT P6SM OVC008
     FM241400 08005KT P6SM BKN025=

USA.gov is the U.S. government's official web portal to all federal, state and local government web resources and services.